createdAt,value
2023-03-18T00:00:37.253Z,0.00
2023-03-18T00:01:37.247Z,0.00
2023-03-18T00:02:37.310Z,0.00
2023-03-18T00:03:37.244Z,0.00
2023-03-18T00:04:37.236Z,0.00
2023-03-18T00:05:37.196Z,0.00
2023-03-18T00:06:37.184Z,0.00
2023-03-18T00:07:37.171Z,0.00
2023-03-18T00:08:37.202Z,0.00
2023-03-18T00:09:37.148Z,0.00
2023-03-18T00:10:37.140Z,0.00
2023-03-18T00:11:37.125Z,0.00
2023-03-18T00:12:37.142Z,0.00
2023-03-18T00:13:37.110Z,0.00
2023-03-18T00:14:37.100Z,0.00
2023-03-18T00:15:37.100Z,0.00
2023-03-18T00:16:37.072Z,0.00
2023-03-18T00:17:37.054Z,0.00
2023-03-18T00:18:37.058Z,0.00
2023-03-18T00:19:37.047Z,0.00
2023-03-18T00:20:37.035Z,0.00
2023-03-18T00:21:37.046Z,0.00
2023-03-18T00:22:37.010Z,0.00
2023-03-18T00:23:36.993Z,0.00
2023-03-18T00:24:36.990Z,0.00
2023-03-18T00:25:37.002Z,0.00
2023-03-18T00:26:36.960Z,0.00
2023-03-18T00:27:36.947Z,0.00
2023-03-18T00:28:36.959Z,0.00
2023-03-18T00:29:36.930Z,0.00
2023-03-18T00:30:36.928Z,0.00
2023-03-18T00:31:37.033Z,0.00
2023-03-18T00:32:36.981Z,0.00
2023-03-18T00:33:36.880Z,0.00
2023-03-18T00:34:36.880Z,0.00
2023-03-18T00:35:36.898Z,0.00
2023-03-18T00:36:36.855Z,0.00
2023-03-18T00:37:36.828Z,0.00
2023-03-18T00:38:36.830Z,0.00
2023-03-18T00:39:36.818Z,0.00
2023-03-18T00:40:36.805Z,0.00
2023-03-18T00:41:36.800Z,0.00
2023-03-18T00:42:36.778Z,0.00
2023-03-18T00:43:36.803Z,0.00
2023-03-18T00:44:36.787Z,0.00
2023-03-18T00:45:36.760Z,0.00
2023-03-18T00:46:36.835Z,0.00
2023-03-18T00:47:36.788Z,0.00
2023-03-18T00:48:36.769Z,0.00
2023-03-18T00:49:36.707Z,0.00
2023-03-18T00:50:36.691Z,0.00
2023-03-18T00:51:36.678Z,0.00
2023-03-18T00:52:36.664Z,0.00
2023-03-18T00:53:36.647Z,0.00
2023-03-18T00:54:36.651Z,0.00
2023-03-18T00:55:36.634Z,0.00
2023-03-18T00:56:36.623Z,0.00
2023-03-18T00:57:36.613Z,0.00
2023-03-18T00:58:36.596Z,0.00
2023-03-18T00:59:36.581Z,0.00
2023-03-18T01:00:36.638Z,0.00
2023-03-18T01:01:36.664Z,0.00
2023-03-18T01:02:36.549Z,0.00
2023-03-18T01:03:36.627Z,0.00
2023-03-18T01:04:36.527Z,0.00
2023-03-18T01:05:36.512Z,0.00
2023-03-18T01:06:36.508Z,0.00
2023-03-18T01:07:36.500Z,0.00
2023-03-18T01:08:36.480Z,0.00
2023-03-18T01:09:36.486Z,0.00
2023-03-18T01:10:36.467Z,0.00
2023-03-18T01:11:36.456Z,0.00
2023-03-18T01:12:36.438Z,0.00
2023-03-18T01:13:36.428Z,0.00
2023-03-18T01:14:36.430Z,0.00
2023-03-18T01:15:36.419Z,0.00
2023-03-18T01:16:36.494Z,0.00
2023-03-18T01:17:36.384Z,0.00
2023-03-18T01:18:36.370Z,0.00
2023-03-18T01:19:36.373Z,0.00
2023-03-18T01:20:36.348Z,0.00
2023-03-18T01:21:36.349Z,0.00
2023-03-18T01:22:36.321Z,0.00
2023-03-18T01:23:36.310Z,0.00
2023-03-18T01:24:36.307Z,0.00
2023-03-18T01:25:36.298Z,0.00
2023-03-18T01:26:36.276Z,0.00
2023-03-18T01:27:36.275Z,0.00
2023-03-18T01:28:36.259Z,0.00
2023-03-18T01:29:36.279Z,0.00
2023-03-18T01:30:36.235Z,0.00
2023-03-18T01:31:36.252Z,0.00
2023-03-18T01:32:36.286Z,0.00
2023-03-18T01:33:36.202Z,0.00
2023-03-18T01:34:36.188Z,0.00
2023-03-18T01:35:36.241Z,0.00
2023-03-18T01:36:36.169Z,0.00
2023-03-18T01:37:36.152Z,0.00
2023-03-18T01:38:36.163Z,0.00
2023-03-18T01:39:36.135Z,0.00
2023-03-18T01:40:36.118Z,0.00
2023-03-18T01:41:36.111Z,0.00
2023-03-18T01:42:36.093Z,0.00
2023-03-18T01:43:36.082Z,0.00
2023-03-18T01:44:36.073Z,0.00
2023-03-18T01:45:36.100Z,0.00
2023-03-18T01:46:36.049Z,0.00
2023-03-18T01:47:36.033Z,0.00
2023-03-18T01:48:36.049Z,0.00
2023-03-18T01:49:36.007Z,0.00
2023-03-18T01:50:36.025Z,0.00
2023-03-18T01:51:35.983Z,0.00
2023-03-18T01:52:36.006Z,0.00
2023-03-18T01:53:35.964Z,0.00
2023-03-18T01:54:35.954Z,0.00
2023-03-18T01:55:35.941Z,0.00
2023-03-18T01:56:35.970Z,0.00
2023-03-18T01:57:35.922Z,0.00
2023-03-18T01:58:35.910Z,0.00
2023-03-18T01:59:35.897Z,0.00
2023-03-18T02:00:35.887Z,0.00
2023-03-18T02:01:35.888Z,0.00
2023-03-18T02:02:35.867Z,0.00
2023-03-18T02:03:35.860Z,0.00
2023-03-18T02:04:35.863Z,0.00
2023-03-18T02:05:35.838Z,0.00
2023-03-18T02:06:35.833Z,0.00
2023-03-18T02:07:35.807Z,0.00
2023-03-18T02:08:35.804Z,0.00
2023-03-18T02:09:35.793Z,0.00
2023-03-18T02:10:35.776Z,0.00
2023-03-18T02:11:35.764Z,0.00
2023-03-18T02:12:35.759Z,0.00
2023-03-18T02:13:35.746Z,0.00
2023-03-18T02:14:35.751Z,0.00
2023-03-18T02:15:35.726Z,0.00
2023-03-18T02:16:35.773Z,0.00
2023-03-18T02:17:35.698Z,0.00
2023-03-18T02:18:35.681Z,0.00
2023-03-18T02:19:35.676Z,0.00
2023-03-18T02:20:35.684Z,0.00
2023-03-18T02:21:35.709Z,0.00
2023-03-18T02:22:35.639Z,0.00
2023-03-18T02:23:35.621Z,0.00
2023-03-18T02:24:35.615Z,0.00
2023-03-18T02:25:35.613Z,0.00
2023-03-18T02:26:35.601Z,0.00
2023-03-18T02:27:35.591Z,0.00
2023-03-18T02:28:35.568Z,0.00
2023-03-18T02:29:35.553Z,0.00
2023-03-18T02:30:35.825Z,0.00
2023-03-18T02:31:35.547Z,0.00
2023-03-18T02:32:35.603Z,0.00
2023-03-18T02:33:35.508Z,0.00
2023-03-18T02:34:35.521Z,0.00
2023-03-18T02:35:35.524Z,0.00
2023-03-18T02:36:35.513Z,0.00
2023-03-18T02:37:35.475Z,0.00
2023-03-18T02:38:35.468Z,0.00
2023-03-18T02:39:35.439Z,0.00
2023-03-18T02:40:35.465Z,0.00
2023-03-18T02:41:35.445Z,0.00
2023-03-18T02:42:35.419Z,0.00
2023-03-18T02:43:35.408Z,0.00
2023-03-18T02:44:35.384Z,0.00
2023-03-18T02:45:35.382Z,0.00
2023-03-18T02:46:35.372Z,0.00
2023-03-18T02:47:35.363Z,0.00
2023-03-18T02:48:35.340Z,0.00
2023-03-18T02:49:35.343Z,0.00
2023-03-18T02:50:35.320Z,0.00
2023-03-18T02:51:35.308Z,0.00
2023-03-18T02:52:35.332Z,0.00
2023-03-18T02:53:35.286Z,0.00
2023-03-18T02:54:35.284Z,0.00
2023-03-18T02:55:35.270Z,0.00
2023-03-18T02:56:35.282Z,0.00
2023-03-18T02:57:35.240Z,0.00
2023-03-18T02:58:35.241Z,0.00
2023-03-18T02:59:35.237Z,0.00
2023-03-18T03:00:35.228Z,0.00
2023-03-18T03:01:35.314Z,0.00
2023-03-18T03:02:35.392Z,0.00
2023-03-18T03:03:35.339Z,0.00
2023-03-18T03:04:35.165Z,0.00
2023-03-18T03:05:35.183Z,0.00
2023-03-18T03:06:35.145Z,0.00
2023-03-18T03:07:35.141Z,0.00
2023-03-18T03:08:35.139Z,0.00
2023-03-18T03:09:35.110Z,0.00
2023-03-18T03:10:35.099Z,0.00
2023-03-18T03:11:35.078Z,0.00
2023-03-18T03:12:35.075Z,0.00
2023-03-18T03:13:35.087Z,0.00
2023-03-18T03:14:35.073Z,0.00
2023-03-18T03:15:35.087Z,0.00
2023-03-18T03:16:35.026Z,0.00
2023-03-18T03:17:35.014Z,0.00
2023-03-18T03:18:35.003Z,0.00
2023-03-18T03:19:35.003Z,0.00
2023-03-18T03:20:34.991Z,0.00
2023-03-18T03:21:34.966Z,0.00
2023-03-18T03:22:34.959Z,0.00
2023-03-18T03:23:34.948Z,0.00
2023-03-18T03:24:34.960Z,0.00
2023-03-18T03:25:34.957Z,0.00
2023-03-18T03:26:34.928Z,0.00
2023-03-18T03:27:34.901Z,0.00
2023-03-18T03:28:34.906Z,0.00
2023-03-18T03:29:34.873Z,0.00
2023-03-18T03:30:34.863Z,0.00
2023-03-18T03:31:34.964Z,0.00
2023-03-18T03:32:34.869Z,0.00
2023-03-18T03:33:34.829Z,0.00
2023-03-18T03:34:34.823Z,0.00
2023-03-18T03:35:34.859Z,0.00
2023-03-18T03:36:34.803Z,0.00
2023-03-18T03:37:34.801Z,0.00
2023-03-18T03:38:34.785Z,0.00
2023-03-18T03:39:34.763Z,0.00
2023-03-18T03:40:34.798Z,0.00
2023-03-18T03:41:34.742Z,0.00
2023-03-18T03:42:34.914Z,0.00
2023-03-18T03:43:34.761Z,0.00
2023-03-18T03:44:34.722Z,0.00
2023-03-18T03:45:34.759Z,0.00
2023-03-18T03:46:34.737Z,0.00
2023-03-18T03:47:34.721Z,0.00
2023-03-18T03:48:34.684Z,0.00
2023-03-18T03:49:34.650Z,0.00
2023-03-18T03:50:34.645Z,0.00
2023-03-18T03:51:34.656Z,0.00
2023-03-18T03:52:41.663Z,0.00
2023-03-18T03:53:34.612Z,0.00
2023-03-18T03:54:34.615Z,0.00
2023-03-18T03:55:34.596Z,0.00
2023-03-18T03:56:34.594Z,0.00
2023-03-18T03:57:34.559Z,0.00
2023-03-18T03:58:34.557Z,0.00
2023-03-18T03:59:34.556Z,0.00
2023-03-18T04:00:34.523Z,0.00
2023-03-18T04:01:34.515Z,0.00
2023-03-18T04:02:34.549Z,0.00
2023-03-18T04:03:34.508Z,0.00
2023-03-18T04:04:34.636Z,0.00
2023-03-18T04:05:34.471Z,0.00
2023-03-18T04:06:34.474Z,0.00
2023-03-18T04:07:34.456Z,0.00
2023-03-18T04:08:34.428Z,0.00
2023-03-18T04:09:34.449Z,0.00
2023-03-18T04:10:34.608Z,0.00
2023-03-18T04:11:34.410Z,0.00
2023-03-18T04:12:34.406Z,0.00
2023-03-18T04:13:34.392Z,0.00
2023-03-18T04:14:34.380Z,0.00
2023-03-18T04:15:34.354Z,0.00
2023-03-18T04:16:34.389Z,0.00
2023-03-18T04:17:34.334Z,0.00
2023-03-18T04:18:34.328Z,0.00
2023-03-18T04:19:34.313Z,0.00
2023-03-18T04:20:34.422Z,0.00
2023-03-18T04:21:34.288Z,0.00
2023-03-18T04:22:34.272Z,0.00
2023-03-18T04:23:34.265Z,0.00
2023-03-18T04:24:34.276Z,0.00
2023-03-18T04:25:34.255Z,0.00
2023-03-18T04:26:34.228Z,0.00
2023-03-18T04:27:34.219Z,0.00
2023-03-18T04:28:34.244Z,0.00
2023-03-18T04:29:34.194Z,0.00
2023-03-18T04:30:34.462Z,0.00
2023-03-18T04:31:34.286Z,0.00
2023-03-18T04:32:34.215Z,0.00
2023-03-18T04:33:34.152Z,0.00
2023-03-18T04:34:34.134Z,0.00
2023-03-18T04:35:34.205Z,0.00
2023-03-18T04:36:34.111Z,0.00
2023-03-18T04:37:37.005Z,0.00
2023-03-18T04:38:34.107Z,0.00
2023-03-18T04:39:34.089Z,0.00
2023-03-18T04:40:34.252Z,0.00
2023-03-18T04:41:34.080Z,0.00
2023-03-18T04:42:34.051Z,0.00
2023-03-18T04:43:34.061Z,0.00
2023-03-18T04:44:34.041Z,0.00
2023-03-18T04:45:34.015Z,0.00
2023-03-18T04:46:34.070Z,0.00
2023-03-18T04:47:33.999Z,0.00
2023-03-18T04:48:33.983Z,0.00
2023-03-18T04:49:33.975Z,0.00
2023-03-18T04:50:34.228Z,0.00
2023-03-18T04:51:33.948Z,0.00
2023-03-18T04:52:33.945Z,0.00
2023-03-18T04:53:33.919Z,0.00
2023-03-18T04:54:33.907Z,0.00
2023-03-18T04:55:34.193Z,0.00
2023-03-18T04:56:33.885Z,0.00
2023-03-18T04:57:33.885Z,0.00
2023-03-18T04:58:33.861Z,0.00
2023-03-18T04:59:33.861Z,0.00
2023-03-18T05:00:33.929Z,0.00
2023-03-18T05:01:33.839Z,0.00
2023-03-18T05:02:33.815Z,0.00
2023-03-18T05:03:33.825Z,0.00
2023-03-18T05:04:33.792Z,0.00
2023-03-18T05:05:35.614Z,0.00
2023-03-18T05:06:33.800Z,0.00
2023-03-18T05:07:33.764Z,0.00
2023-03-18T05:08:33.753Z,0.00
2023-03-18T05:09:33.745Z,0.00
2023-03-18T05:10:33.736Z,0.00
2023-03-18T05:11:33.728Z,0.00
2023-03-18T05:12:33.710Z,0.00
2023-03-18T05:13:33.692Z,0.00
2023-03-18T05:14:33.689Z,0.00
2023-03-18T05:15:33.986Z,0.00
2023-03-18T05:16:33.766Z,0.00
2023-03-18T05:17:33.662Z,0.00
2023-03-18T05:18:33.642Z,0.00
2023-03-18T05:19:33.649Z,0.00
2023-03-18T05:20:33.617Z,0.00
2023-03-18T05:21:33.628Z,0.00
2023-03-18T05:22:33.592Z,0.00
2023-03-18T05:23:33.585Z,0.00
2023-03-18T05:24:33.570Z,0.00
2023-03-18T05:25:33.947Z,0.00
2023-03-18T05:26:33.559Z,0.00
2023-03-18T05:27:33.643Z,0.00
2023-03-18T05:28:33.524Z,0.00
2023-03-18T05:29:33.514Z,0.00
2023-03-18T05:30:33.500Z,0.00
2023-03-18T05:31:33.555Z,4.00
2023-03-18T05:32:33.561Z,0.00
2023-03-18T05:33:33.476Z,0.00
2023-03-18T05:34:33.454Z,0.00
2023-03-18T05:35:34.003Z,4.00
2023-03-18T05:36:33.458Z,4.00
2023-03-18T05:37:33.432Z,0.00
2023-03-18T05:38:33.412Z,0.00
2023-03-18T05:39:33.436Z,4.00
2023-03-18T05:40:33.394Z,4.00
2023-03-18T05:41:33.385Z,4.00
2023-03-18T05:42:35.251Z,4.00
2023-03-18T05:43:34.360Z,4.00
2023-03-18T05:44:33.353Z,8.00
2023-03-18T05:45:33.625Z,8.00
2023-03-18T05:46:33.387Z,4.00
2023-03-18T05:47:33.303Z,12.00
2023-03-18T05:48:33.323Z,8.00
2023-03-18T05:49:33.295Z,8.00
2023-03-18T05:50:33.299Z,12.00
2023-03-18T05:51:33.262Z,12.00
2023-03-18T05:52:33.260Z,16.00
2023-03-18T05:53:33.238Z,16.00
2023-03-18T05:54:33.229Z,20.00
2023-03-18T05:55:34.385Z,20.00
2023-03-18T05:56:33.215Z,28.00
2023-03-18T05:57:33.194Z,24.00
2023-03-18T05:58:33.186Z,32.00
2023-03-18T05:59:33.175Z,36.00
2023-03-18T06:00:33.169Z,28.00
2023-03-18T06:01:33.175Z,36.00
2023-03-18T06:02:33.174Z,32.00
2023-03-18T06:03:33.177Z,24.00
2023-03-18T06:04:33.151Z,32.00
2023-03-18T06:05:33.326Z,28.00
2023-03-18T06:06:33.092Z,28.00
2023-03-18T06:07:33.093Z,36.00
2023-03-18T06:08:33.079Z,32.00
2023-03-18T06:09:33.068Z,40.00
2023-03-18T06:10:33.062Z,60.00
2023-03-18T06:11:33.042Z,52.00
2023-03-18T06:12:33.040Z,64.00
2023-03-18T06:13:33.016Z,84.00
2023-03-18T06:14:33.004Z,72.00
2023-03-18T06:15:33.406Z,84.00
2023-03-18T06:16:33.053Z,108.00
2023-03-18T06:17:32.983Z,92.00
2023-03-18T06:18:32.963Z,100.00
2023-03-18T06:19:32.958Z,128.00
2023-03-18T06:20:32.965Z,120.00
2023-03-18T06:21:32.930Z,140.00
2023-03-18T06:22:32.931Z,164.00
2023-03-18T06:23:32.914Z,140.00
2023-03-18T06:24:32.897Z,164.00
2023-03-18T06:25:33.112Z,188.00
2023-03-18T06:26:32.868Z,164.00
2023-03-18T06:27:32.861Z,200.00
2023-03-18T06:28:32.866Z,236.00
2023-03-18T06:29:32.842Z,220.00
2023-03-18T06:30:32.822Z,264.00
2023-03-18T06:31:32.943Z,292.00
2023-03-18T06:32:32.827Z,276.00
2023-03-18T06:33:32.800Z,340.00
2023-03-18T06:34:32.791Z,340.00
2023-03-18T06:35:33.177Z,304.00
2023-03-18T06:36:32.776Z,420.00
2023-03-18T06:37:32.743Z,500.00
2023-03-18T06:38:32.740Z,556.00
2023-03-18T06:39:32.726Z,624.00
2023-03-18T06:40:32.722Z,500.00
2023-03-18T06:41:32.702Z,464.00
2023-03-18T06:42:32.699Z,496.00
2023-03-18T06:43:32.679Z,408.00
2023-03-18T06:44:32.666Z,360.00
2023-03-18T06:45:33.116Z,408.00
2023-03-18T06:46:32.717Z,380.00
2023-03-18T06:47:32.657Z,352.00
2023-03-18T06:48:32.621Z,388.00
2023-03-18T06:49:32.636Z,380.00
2023-03-18T06:50:32.613Z,400.00
2023-03-18T06:51:32.602Z,384.00
2023-03-18T06:52:32.604Z,324.00
2023-03-18T06:53:32.563Z,332.00
2023-03-18T06:54:32.561Z,380.00
2023-03-18T06:55:33.035Z,348.00
2023-03-18T06:56:32.529Z,420.00
2023-03-18T06:57:32.536Z,400.00
2023-03-18T06:58:32.506Z,348.00
2023-03-18T06:59:32.498Z,388.00
2023-03-18T07:00:32.716Z,396.00
2023-03-18T07:01:32.538Z,368.00
2023-03-18T07:02:32.467Z,436.00
2023-03-18T07:03:32.450Z,388.00
2023-03-18T07:04:32.512Z,376.00
2023-03-18T07:05:32.688Z,428.00
2023-03-18T07:06:32.427Z,428.00
2023-03-18T07:07:32.424Z,396.00
2023-03-18T07:08:32.424Z,476.00
2023-03-18T07:09:32.384Z,432.00
2023-03-18T07:10:32.369Z,388.00
2023-03-18T07:11:32.363Z,456.00
2023-03-18T07:12:32.359Z,420.00
2023-03-18T07:13:32.350Z,388.00
2023-03-18T07:14:32.325Z,452.00
2023-03-18T07:15:32.652Z,416.00
2023-03-18T07:16:32.298Z,384.00
2023-03-18T07:17:32.290Z,440.00
2023-03-18T07:18:32.295Z,412.00
2023-03-18T07:19:32.350Z,384.00
2023-03-18T07:20:32.259Z,460.00
2023-03-18T07:21:32.252Z,408.00
2023-03-18T07:22:32.243Z,404.00
2023-03-18T07:23:32.242Z,432.00
2023-03-18T07:24:32.262Z,452.00
2023-03-18T07:25:32.555Z,448.00
2023-03-18T07:26:32.210Z,504.00
2023-03-18T07:27:32.185Z,632.00
2023-03-18T07:28:32.172Z,592.00
2023-03-18T07:29:32.166Z,740.00
2023-03-18T07:30:32.137Z,788.00
2023-03-18T07:31:32.184Z,804.00
2023-03-18T07:32:32.141Z,992.00
2023-03-18T07:33:32.114Z,956.00
2023-03-18T07:34:32.108Z,924.00
2023-03-18T07:35:32.492Z,972.00
2023-03-18T07:36:32.075Z,972.00
2023-03-18T07:37:32.078Z,980.00
2023-03-18T07:38:32.049Z,1084.00
2023-03-18T07:39:32.060Z,1100.00
2023-03-18T07:40:32.049Z,1088.00
2023-03-18T07:41:32.017Z,1208.00
2023-03-18T07:42:32.003Z,1400.00
2023-03-18T07:43:31.999Z,1420.00
2023-03-18T07:44:31.985Z,1308.00
2023-03-18T07:45:32.213Z,1304.00
2023-03-18T07:46:32.076Z,1168.00
2023-03-18T07:47:31.954Z,1140.00
2023-03-18T07:48:31.942Z,1244.00
2023-03-18T07:49:31.942Z,1148.00
2023-03-18T07:50:31.923Z,1168.00
2023-03-18T07:51:31.906Z,1116.00
2023-03-18T07:52:31.903Z,1008.00
2023-03-18T07:53:31.883Z,972.00
2023-03-18T07:54:31.875Z,1032.00
2023-03-18T07:55:32.157Z,960.00
2023-03-18T07:56:31.871Z,892.00
2023-03-18T07:57:31.849Z,928.00
2023-03-18T07:58:31.837Z,788.00
2023-03-18T07:59:31.819Z,724.00
2023-03-18T08:00:31.837Z,708.00
2023-03-18T08:01:31.803Z,624.00
2023-03-18T08:02:31.787Z,508.00
2023-03-18T08:03:31.893Z,632.00
2023-03-18T08:04:31.920Z,544.00
2023-03-18T08:05:32.132Z,508.00
2023-03-18T08:06:31.745Z,532.00
2023-03-18T08:07:31.722Z,520.00
2023-03-18T08:08:31.706Z,476.00
2023-03-18T08:09:31.699Z,516.00
2023-03-18T08:10:31.709Z,516.00
2023-03-18T08:11:31.689Z,440.00
2023-03-18T08:12:45.344Z,488.00
2023-03-18T08:13:32.693Z,540.00
2023-03-18T08:14:31.683Z,516.00
2023-03-18T08:15:32.008Z,552.00
2023-03-18T08:16:31.651Z,568.00
2023-03-18T08:17:31.624Z,532.00
2023-03-18T08:18:31.602Z,516.00
2023-03-18T08:19:31.586Z,588.00
2023-03-18T08:20:31.585Z,584.00
2023-03-18T08:21:31.560Z,544.00
2023-03-18T08:22:31.550Z,596.00
2023-03-18T08:23:31.568Z,632.00
2023-03-18T08:24:31.525Z,620.00
2023-03-18T08:25:32.114Z,712.00
2023-03-18T08:26:31.509Z,712.00
2023-03-18T08:27:31.491Z,668.00
2023-03-18T08:28:31.513Z,596.00
2023-03-18T08:29:31.478Z,672.00
2023-03-18T08:30:31.463Z,744.00
2023-03-18T08:31:31.488Z,692.00
2023-03-18T08:32:31.489Z,696.00
2023-03-18T08:33:31.425Z,752.00
2023-03-18T08:34:31.434Z,676.00
2023-03-18T08:35:31.697Z,652.00
2023-03-18T08:36:31.391Z,728.00
2023-03-18T08:37:31.378Z,776.00
2023-03-18T08:38:31.376Z,760.00
2023-03-18T08:39:31.363Z,812.00
2023-03-18T08:40:31.361Z,1040.00
2023-03-18T08:41:31.361Z,1140.00
2023-03-18T08:42:31.323Z,1224.00
2023-03-18T08:43:31.321Z,1388.00
2023-03-18T08:44:31.334Z,1412.00
2023-03-18T08:45:31.638Z,1384.00
2023-03-18T08:46:31.279Z,1432.00
2023-03-18T08:47:31.272Z,1544.00
2023-03-18T08:48:31.259Z,1552.00
2023-03-18T08:49:31.244Z,1576.00
2023-03-18T08:50:31.240Z,1540.00
2023-03-18T08:51:31.221Z,1808.00
2023-03-18T08:52:31.215Z,2064.00
2023-03-18T08:53:31.212Z,2024.00
2023-03-18T08:54:31.187Z,2080.00
2023-03-18T08:55:31.547Z,2168.00
2023-03-18T08:56:31.174Z,1976.00
2023-03-18T08:57:31.160Z,1936.00
2023-03-18T08:58:31.144Z,2028.00
2023-03-18T08:59:31.130Z,2412.00
2023-03-18T09:00:31.165Z,2500.00
2023-03-18T09:01:31.159Z,2412.00
2023-03-18T09:02:31.104Z,2640.00
2023-03-18T09:03:31.217Z,2464.00
2023-03-18T09:04:31.075Z,2448.00
2023-03-18T09:05:31.516Z,2464.00
2023-03-18T09:06:31.095Z,2548.00
2023-03-18T09:07:31.039Z,2372.00
2023-03-18T09:08:31.031Z,2248.00
2023-03-18T09:09:42.711Z,2260.00
2023-03-18T09:10:32.015Z,2416.00
2023-03-18T09:11:31.007Z,2424.00
2023-03-18T09:12:30.989Z,2480.00
2023-03-18T09:13:30.974Z,2464.00
2023-03-18T09:14:30.969Z,2608.00
2023-03-18T09:15:31.231Z,3240.00
2023-03-18T09:16:31.049Z,4792.00
2023-03-18T09:17:45.286Z,5508.00
2023-03-18T09:18:31.935Z,6320.00
2023-03-18T09:19:30.923Z,5336.00
2023-03-18T09:20:30.911Z,4456.00
2023-03-18T09:21:30.901Z,5060.00
2023-03-18T09:22:30.873Z,5488.00
2023-03-18T09:23:30.853Z,5584.00
2023-03-18T09:24:30.859Z,5676.00
2023-03-18T09:25:31.165Z,5772.00
2023-03-18T09:26:30.854Z,5364.00
2023-03-18T09:27:30.811Z,5292.00
2023-03-18T09:28:30.801Z,4932.00
2023-03-18T09:29:30.794Z,5156.00
2023-03-18T09:30:30.832Z,4776.00
2023-03-18T09:31:30.791Z,4988.00
2023-03-18T09:32:30.832Z,5044.00
2023-03-18T09:33:30.742Z,4936.00
2023-03-18T09:34:30.736Z,5044.00
2023-03-18T09:35:31.162Z,5080.00
2023-03-18T09:36:30.715Z,5212.00
2023-03-18T09:37:30.696Z,5024.00
2023-03-18T09:38:30.685Z,3244.00
2023-03-18T09:39:30.677Z,3004.00
2023-03-18T09:40:30.781Z,2916.00
2023-03-18T09:41:30.686Z,2672.00
2023-03-18T09:42:30.649Z,2604.00
2023-03-18T09:43:30.639Z,2464.00
2023-03-18T09:44:30.637Z,2256.00
2023-03-18T09:45:30.913Z,2280.00
2023-03-18T09:46:30.713Z,2328.00
2023-03-18T09:47:30.587Z,2584.00
2023-03-18T09:48:30.611Z,3468.00
2023-03-18T09:49:30.562Z,3084.00
2023-03-18T09:50:30.552Z,3712.00
2023-03-18T09:51:30.541Z,2672.00
2023-03-18T09:52:30.553Z,2584.00
2023-03-18T09:53:37.634Z,3152.00
2023-03-18T09:54:30.517Z,2708.00
2023-03-18T09:55:30.921Z,2952.00
2023-03-18T09:56:30.483Z,3048.00
2023-03-18T09:57:30.476Z,2124.00
2023-03-18T09:58:30.472Z,2088.00
2023-03-18T09:59:30.457Z,2124.00
2023-03-18T10:00:30.439Z,2108.00
2023-03-18T10:01:30.486Z,1868.00
2023-03-18T10:02:30.415Z,1908.00
2023-03-18T10:03:30.428Z,2132.00
2023-03-18T10:04:30.441Z,2292.00
2023-03-18T10:05:30.773Z,4648.00
2023-03-18T10:06:30.367Z,4872.00
2023-03-18T10:07:30.376Z,5088.00
2023-03-18T10:08:30.345Z,5332.00
2023-03-18T10:09:30.354Z,5084.00
2023-03-18T10:10:30.327Z,2588.00
2023-03-18T10:11:30.310Z,2252.00
2023-03-18T10:12:30.303Z,2088.00
2023-03-18T10:13:30.294Z,1976.00
2023-03-18T10:14:30.290Z,4228.00
2023-03-18T10:15:30.639Z,1912.00
2023-03-18T10:16:30.258Z,1884.00
2023-03-18T10:17:30.259Z,2348.00
2023-03-18T10:18:30.243Z,4012.00
2023-03-18T10:19:30.248Z,2068.00
2023-03-18T10:20:30.254Z,2024.00
2023-03-18T10:21:30.202Z,2052.00
2023-03-18T10:22:30.191Z,1876.00
2023-03-18T10:23:30.197Z,2012.00
2023-03-18T10:24:30.180Z,2640.00
2023-03-18T10:25:30.243Z,2564.00
2023-03-18T10:26:30.151Z,2268.00
2023-03-18T10:27:30.134Z,2112.00
2023-03-18T10:28:30.146Z,1936.00
2023-03-18T10:29:30.140Z,1788.00
2023-03-18T10:30:30.122Z,1592.00
2023-03-18T10:31:30.233Z,1612.00
2023-03-18T10:32:46.433Z,1728.00
2023-03-18T10:33:31.134Z,1796.00
2023-03-18T10:34:30.079Z,1800.00
2023-03-18T10:35:30.047Z,1668.00
2023-03-18T10:36:30.063Z,1700.00
2023-03-18T10:37:30.030Z,1680.00
2023-03-18T10:38:30.014Z,1888.00
2023-03-18T10:39:29.996Z,2600.00
2023-03-18T10:40:30.007Z,2704.00
2023-03-18T10:41:30.010Z,4624.00
2023-03-18T10:42:29.981Z,3940.00
2023-03-18T10:43:29.949Z,2200.00
2023-03-18T10:44:29.947Z,2316.00
2023-03-18T10:45:30.043Z,2240.00
2023-03-18T10:46:30.026Z,2128.00
2023-03-18T10:47:29.994Z,2260.00
2023-03-18T10:48:29.904Z,2436.00
2023-03-18T10:49:29.883Z,2392.00
2023-03-18T10:50:29.878Z,2384.00
2023-03-18T10:51:29.879Z,4732.00
2023-03-18T10:52:29.887Z,4536.00
2023-03-18T10:53:29.840Z,4336.00
2023-03-18T10:54:29.828Z,2984.00
2023-03-18T10:55:29.836Z,1504.00
2023-03-18T10:56:29.822Z,1436.00
2023-03-18T10:57:29.808Z,1500.00
2023-03-18T10:58:29.823Z,1496.00
2023-03-18T10:59:29.767Z,1360.00
2023-03-18T11:00:29.828Z,1296.00
2023-03-18T11:01:29.828Z,1208.00
2023-03-18T11:02:29.797Z,1232.00
2023-03-18T11:03:29.747Z,1216.00
2023-03-18T11:04:29.716Z,2576.00
2023-03-18T11:05:29.796Z,1680.00
2023-03-18T11:06:31.528Z,3256.00
2023-03-18T11:07:29.684Z,4404.00
2023-03-18T11:08:29.703Z,4400.00
2023-03-18T11:09:29.678Z,4480.00
2023-03-18T11:10:29.667Z,4608.00
2023-03-18T11:11:29.635Z,4256.00
2023-03-18T11:12:29.633Z,1884.00
2023-03-18T11:13:29.681Z,1696.00
2023-03-18T11:14:29.620Z,1580.00
2023-03-18T11:15:29.594Z,1448.00
2023-03-18T11:16:29.741Z,1316.00
2023-03-18T11:17:29.583Z,1260.00
2023-03-18T11:18:29.569Z,1244.00
2023-03-18T11:19:30.289Z,1408.00
2023-03-18T11:20:29.576Z,1632.00
2023-03-18T11:21:29.525Z,3632.00
2023-03-18T11:22:29.543Z,4200.00
2023-03-18T11:23:29.533Z,4328.00
2023-03-18T11:24:29.531Z,1916.00
2023-03-18T11:25:29.485Z,2048.00
2023-03-18T11:26:29.476Z,1856.00
2023-03-18T11:27:29.451Z,1796.00
2023-03-18T11:28:29.460Z,2608.00
2023-03-18T11:29:29.462Z,1724.00
2023-03-18T11:30:36.809Z,1648.00
2023-03-18T11:31:30.540Z,1608.00
2023-03-18T11:32:29.456Z,1628.00
2023-03-18T11:33:29.405Z,1524.00
2023-03-18T11:34:29.438Z,1588.00
2023-03-18T11:35:29.410Z,1628.00
2023-03-18T11:36:29.355Z,1688.00
2023-03-18T11:37:29.355Z,1676.00
2023-03-18T11:38:29.346Z,1656.00
2023-03-18T11:39:29.334Z,1560.00
2023-03-18T11:40:29.372Z,1544.00
2023-03-18T11:41:29.290Z,1584.00
2023-03-18T11:42:29.282Z,1712.00
2023-03-18T11:43:29.271Z,1828.00
2023-03-18T11:44:29.259Z,1896.00
2023-03-18T11:45:29.250Z,1976.00
2023-03-18T11:46:29.293Z,4224.00
2023-03-18T11:47:29.228Z,4600.00
2023-03-18T11:48:29.214Z,4452.00
2023-03-18T11:49:29.197Z,4300.00
2023-03-18T11:50:29.230Z,2572.00
2023-03-18T11:51:29.202Z,2404.00
2023-03-18T11:52:29.193Z,2564.00
2023-03-18T11:53:29.158Z,1184.00
2023-03-18T11:54:29.151Z,1128.00
2023-03-18T11:55:29.163Z,1284.00
2023-03-18T11:56:29.151Z,2548.00
2023-03-18T11:57:29.107Z,3520.00
2023-03-18T11:58:29.107Z,4208.00
2023-03-18T11:59:29.130Z,3992.00
2023-03-18T12:00:29.112Z,3856.00
2023-03-18T12:01:29.907Z,3580.00
2023-03-18T12:02:29.057Z,4048.00
2023-03-18T12:03:29.052Z,3764.00
2023-03-18T12:04:29.043Z,3916.00
2023-03-18T12:05:29.085Z,3436.00
2023-03-18T12:06:29.044Z,2104.00
2023-03-18T12:07:28.999Z,1836.00
2023-03-18T12:08:29.015Z,1876.00
2023-03-18T12:09:28.984Z,1636.00
2023-03-18T12:10:28.972Z,1612.00
2023-03-18T12:11:28.952Z,1824.00
2023-03-18T12:12:28.967Z,2380.00
2023-03-18T12:13:28.935Z,3032.00
2023-03-18T12:14:28.930Z,3188.00
2023-03-18T12:15:28.918Z,2580.00
2023-03-18T12:16:28.933Z,2984.00
2023-03-18T12:17:28.893Z,3080.00
2023-03-18T12:18:28.879Z,3744.00
2023-03-18T12:19:28.871Z,3636.00
2023-03-18T12:20:28.871Z,3568.00
2023-03-18T12:21:28.839Z,3584.00
2023-03-18T12:22:28.829Z,3520.00
2023-03-18T12:23:28.822Z,3520.00
2023-03-18T12:24:28.818Z,3528.00
2023-03-18T12:25:28.792Z,3552.00
2023-03-18T12:26:28.808Z,3536.00
2023-03-18T12:27:28.773Z,3500.00
2023-03-18T12:28:28.781Z,3460.00
2023-03-18T12:29:28.769Z,3464.00
2023-03-18T12:30:28.736Z,3448.00
2023-03-18T12:31:28.781Z,3428.00
2023-03-18T12:32:28.854Z,3424.00
2023-03-18T12:33:28.706Z,3416.00
2023-03-18T12:34:28.711Z,3424.00
2023-03-18T12:35:28.721Z,3456.00
2023-03-18T12:36:28.685Z,3412.00
2023-03-18T12:37:28.667Z,3432.00
2023-03-18T12:38:29.278Z,3436.00
2023-03-18T12:39:30.968Z,3316.00
2023-03-18T12:40:28.622Z,3316.00
2023-03-18T12:41:28.621Z,3368.00
2023-03-18T12:42:28.620Z,3384.00
2023-03-18T12:43:28.613Z,3348.00